createdAt,value
2022-08-12T00:00:09.929Z,98.30
2022-08-12T00:02:56.014Z,98.60
2022-08-12T00:06:00.437Z,98.40
2022-08-12T00:08:53.021Z,99.70
2022-08-12T00:11:39.814Z,98.40
2022-08-12T00:14:26.299Z,98.50
2022-08-12T00:17:12.175Z,98.70
2022-08-12T00:22:44.220Z,97.70
2022-08-12T00:26:19.042Z,98.80
2022-08-12T00:28:36.824Z,98.60
2022-08-12T00:31:23.073Z,98.70
2022-08-12T00:34:09.059Z,99.30
2022-08-12T00:37:00.896Z,98.90
2022-08-12T00:39:52.216Z,98.60
2022-08-12T00:42:23.737Z,98.60
2022-08-12T00:44:52.549Z,98.10
2022-08-12T00:47:24.793Z,98.00
2022-08-12T00:49:56.000Z,98.50
2022-08-12T00:52:25.918Z,98.50
2022-08-12T00:54:58.025Z,98.40
2022-08-12T00:57:32.367Z,98.20
2022-08-12T01:00:03.405Z,98.20
2022-08-12T01:02:35.171Z,98.10
2022-08-12T01:05:26.026Z,98.10
2022-08-12T01:08:12.965Z,97.30
2022-08-12T01:11:03.821Z,97.50
2022-08-12T01:13:40.076Z,97.40
2022-08-12T01:16:10.714Z,97.20
2022-08-12T01:18:42.142Z,97.90
2022-08-12T01:21:20.553Z,96.80
2022-08-12T01:24:29.893Z,97.00
2022-08-12T01:26:57.037Z,96.60
2022-08-12T01:29:32.584Z,96.80
2022-08-12T01:32:08.696Z,96.00
2022-08-12T01:34:40.650Z,96.40
2022-08-12T01:37:11.431Z,96.70
2022-08-12T01:40:31.677Z,96.50
2022-08-12T01:42:48.325Z,97.40
2022-08-12T01:45:24.434Z,97.10
2022-08-12T01:48:12.942Z,96.60
2022-08-12T01:51:06.449Z,96.90
2022-08-12T01:53:57.347Z,96.40
2022-08-12T01:56:29.796Z,97.80
2022-08-12T01:59:22.113Z,97.10
2022-08-12T02:01:55.303Z,98.10
2022-08-12T02:07:55.910Z,98.50
2022-08-12T02:11:03.240Z,98.00
2022-08-12T02:14:24.524Z,98.60
2022-08-12T02:17:16.248Z,98.50
2022-08-12T02:20:02.629Z,99.10
2022-08-12T02:22:38.536Z,98.00
2022-08-12T02:25:14.560Z,97.80
2022-08-12T02:27:47.037Z,98.10
2022-08-12T02:30:19.569Z,97.80
2022-08-12T02:32:52.892Z,98.30
2022-08-12T02:35:23.243Z,98.20
2022-08-12T02:37:53.870Z,98.40
2022-08-12T02:40:24.560Z,99.90
2022-08-12T02:42:59.661Z,99.90
2022-08-12T02:45:38.353Z,99.90
2022-08-12T02:48:15.591Z,99.90
2022-08-12T02:50:51.438Z,99.90
2022-08-12T02:53:20.992Z,99.90
2022-08-12T02:55:50.301Z,99.90
2022-08-12T02:58:20.134Z,99.90
2022-08-12T03:01:03.469Z,99.90
2022-08-12T03:03:35.388Z,99.90
2022-08-12T03:06:08.285Z,99.90
2022-08-12T03:08:42.288Z,99.90
2022-08-12T03:11:22.638Z,99.90
2022-08-12T03:13:56.194Z,99.90
2022-08-12T03:16:25.503Z,99.90
2022-08-12T03:18:56.179Z,99.90
2022-08-12T03:21:52.179Z,99.90
2022-08-12T03:24:18.593Z,99.90
2022-08-12T03:26:49.673Z,99.90
2022-08-12T03:29:20.870Z,99.90
2022-08-12T03:31:50.206Z,99.90
2022-08-12T03:34:29.845Z,99.90
2022-08-12T03:37:02.808Z,99.90
2022-08-12T03:39:41.804Z,99.90
2022-08-12T03:42:28.240Z,99.90
2022-08-12T03:45:32.041Z,99.90
2022-08-12T03:48:25.547Z,99.90
2022-08-12T03:51:14.573Z,99.90
2022-08-12T03:54:01.938Z,99.90
2022-08-12T03:56:48.020Z,99.90
2022-08-12T03:59:33.923Z,99.90
2022-08-12T04:02:02.220Z,99.90
2022-08-12T04:04:35.176Z,99.90
2022-08-12T04:07:08.912Z,99.90
2022-08-12T04:09:40.383Z,99.90
2022-08-12T04:12:32.359Z,99.90
2022-08-12T04:15:02.767Z,99.90
2022-08-12T04:17:32.872Z,99.90
2022-08-12T04:20:01.509Z,99.90
2022-08-12T04:22:31.702Z,99.90
2022-08-12T04:27:32.459Z,99.90
2022-08-12T04:30:16.475Z,99.90
2022-08-12T04:32:52.234Z,99.90
2022-08-12T04:35:22.485Z,99.90
2022-08-12T04:37:59.908Z,99.90
2022-08-12T04:40:36.426Z,99.90
2022-08-12T04:43:05.826Z,99.90
2022-08-12T04:45:38.030Z,99.90
2022-08-12T04:48:07.494Z,99.90
2022-08-12T04:50:37.290Z,99.90
2022-08-12T04:53:09.351Z,99.90
2022-08-12T04:55:40.026Z,99.90
2022-08-12T04:58:09.321Z,99.90
2022-08-12T05:00:38.976Z,99.90
2022-08-12T05:03:08.532Z,99.90
2022-08-12T05:05:40.724Z,99.90
2022-08-12T05:08:15.816Z,99.90
2022-08-12T05:10:46.351Z,99.90
2022-08-12T05:13:19.015Z,99.90
2022-08-12T05:16:04.694Z,99.90
2022-08-12T05:18:35.455Z,99.90
2022-08-12T05:21:09.678Z,99.90
2022-08-12T05:23:40.684Z,99.90
2022-08-12T05:26:09.063Z,99.70
2022-08-12T05:28:38.088Z,99.90
2022-08-12T05:31:06.978Z,99.90
2022-08-12T05:33:38.441Z,99.90
2022-08-12T05:36:12.612Z,99.90
2022-08-12T05:38:58.796Z,98.80
2022-08-12T05:41:30.407Z,97.70
2022-08-12T05:44:03.009Z,98.90
2022-08-12T05:46:33.237Z,98.70
2022-08-12T05:49:02.257Z,96.50
2022-08-12T05:51:40.099Z,96.20
2022-08-12T05:54:12.330Z,96.10
2022-08-12T05:56:41.522Z,95.90
2022-08-12T05:59:13.981Z,95.40
2022-08-12T06:02:09.172Z,93.80
2022-08-12T06:04:34.570Z,93.50
2022-08-12T06:09:57.641Z,90.80
2022-08-12T06:17:24.040Z,87.30
2022-08-12T06:20:28.138Z,88.60
2022-08-12T06:22:40.939Z,89.90
2022-08-12T06:25:18.490Z,88.40
2022-08-12T06:28:07.926Z,82.60
2022-08-12T06:30:38.987Z,83.10
2022-08-12T06:33:24.766Z,82.90
2022-08-12T06:35:57.569Z,81.10
2022-08-12T06:38:30.301Z,76.50
2022-08-12T06:41:19.064Z,75.30
2022-08-12T06:44:05.455Z,77.00
2022-08-12T06:46:36.814Z,76.40
2022-08-12T06:49:06.865Z,72.40
2022-08-12T06:51:35.349Z,76.70
2022-08-12T06:54:04.260Z,72.10
2022-08-12T06:59:23.449Z,74.50
2022-08-12T07:01:52.155Z,70.30
2022-08-12T07:04:38.228Z,69.30
2022-08-12T07:07:09.741Z,70.50
2022-08-12T07:10:04.681Z,68.00
2022-08-12T07:12:28.955Z,66.70
2022-08-12T07:14:58.265Z,66.50
2022-08-12T07:17:36.588Z,71.20
2022-08-12T07:20:09.923Z,70.80
2022-08-12T07:22:39.761Z,69.90
2022-08-12T07:25:26.270Z,68.90
2022-08-12T07:27:57.837Z,65.50
2022-08-12T07:30:26.572Z,68.40
2022-08-12T07:32:58.615Z,66.20
2022-08-12T07:35:31.374Z,62.80
2022-08-12T07:38:02.628Z,62.70
2022-08-12T07:40:31.302Z,64.60
2022-08-12T07:43:00.952Z,63.80
2022-08-12T07:45:29.292Z,64.20
2022-08-12T07:47:57.632Z,62.10
2022-08-12T07:50:26.675Z,60.90
2022-08-12T07:52:55.073Z,66.40
2022-08-12T07:55:23.444Z,62.30
2022-08-12T07:57:57.973Z,62.40
2022-08-12T08:00:30.945Z,58.50
2022-08-12T08:02:59.913Z,61.40
2022-08-12T08:05:33.103Z,60.40
2022-08-12T08:08:02.570Z,58.60
2022-08-12T08:10:33.746Z,58.40
2022-08-12T08:13:05.257Z,57.30
2022-08-12T08:18:27.457Z,57.90
2022-08-12T08:20:57.672Z,57.40
2022-08-12T08:23:41.453Z,60.60
2022-08-12T08:26:10.372Z,57.30
2022-08-12T08:28:38.653Z,57.50
2022-08-12T08:31:08.413Z,55.10
2022-08-12T08:34:01.466Z,56.50
2022-08-12T08:36:25.084Z,57.80
2022-08-12T08:38:58.059Z,54.90
2022-08-12T08:42:17.368Z,56.70
2022-08-12T08:44:36.402Z,54.70
2022-08-12T08:47:07.563Z,55.30
2022-08-12T08:49:37.137Z,59.30
2022-08-12T08:52:07.675Z,58.70
2022-08-12T08:54:37.792Z,59.10
2022-08-12T08:57:09.940Z,53.30
2022-08-12T08:59:38.262Z,54.00
2022-08-12T09:02:08.679Z,58.60
2022-08-12T09:05:12.799Z,57.50
2022-08-12T09:10:30.441Z,54.50
2022-08-12T09:13:29.159Z,54.90
2022-08-12T09:16:14.882Z,52.80
2022-08-12T09:18:44.826Z,54.20
2022-08-12T09:21:13.921Z,51.80
2022-08-12T09:24:00.491Z,54.20
2022-08-12T09:30:10.470Z,51.60
2022-08-12T09:32:29.489Z,52.40
2022-08-12T09:34:59.967Z,53.00
2022-08-12T09:37:28.557Z,52.50
2022-08-12T09:41:02.491Z,52.30
2022-08-12T09:43:25.220Z,51.40
2022-08-12T09:46:06.798Z,53.00
2022-08-12T09:48:44.611Z,51.00
2022-08-12T09:51:37.721Z,53.70
2022-08-12T09:54:34.613Z,53.00
2022-08-12T09:57:00.739Z,53.40
2022-08-12T10:00:16.370Z,53.90
2022-08-12T10:02:45.432Z,56.90
2022-08-12T10:05:13.264Z,56.80
2022-08-12T10:07:43.754Z,54.10
2022-08-12T10:10:24.091Z,54.60
2022-08-12T10:13:34.706Z,55.50
2022-08-12T10:16:05.838Z,56.70
2022-08-12T10:18:51.549Z,56.00
2022-08-12T10:21:24.194Z,58.90
2022-08-12T10:24:09.298Z,57.90
2022-08-12T10:26:57.204Z,54.70
2022-08-12T10:30:37.385Z,54.90
2022-08-12T10:32:45.078Z,50.50
2022-08-12T10:35:16.489Z,51.40
2022-08-12T10:38:34.639Z,52.30
2022-08-12T10:40:58.591Z,51.50
2022-08-12T10:43:54.877Z,51.90
2022-08-12T10:46:31.074Z,51.40
2022-08-12T10:49:06.861Z,52.40
2022-08-12T10:52:32.578Z,50.70
2022-08-12T10:54:41.313Z,47.80
2022-08-12T10:57:18.265Z,47.40
2022-08-12T11:00:35.274Z,50.30
2022-08-12T11:04:32.103Z,49.20
2022-08-12T11:07:05.632Z,50.80
2022-08-12T11:08:42.169Z,46.90
2022-08-12T11:11:16.846Z,46.30
2022-08-12T11:13:48.926Z,47.50
2022-08-12T11:16:19.645Z,48.20
2022-08-12T11:18:55.476Z,47.20
2022-08-12T11:21:56.105Z,49.80
2022-08-12T11:24:29.976Z,46.40
2022-08-12T11:27:01.362Z,45.80
2022-08-12T11:30:01.845Z,45.00
2022-08-12T11:32:20.137Z,46.30
2022-08-12T11:34:53.001Z,45.30
2022-08-12T11:37:26.534Z,46.50
2022-08-12T11:42:39.612Z,45.00
2022-08-12T11:45:16.890Z,44.50
2022-08-12T11:47:45.830Z,44.70
2022-08-12T11:50:19.091Z,46.50
2022-08-12T11:52:55.256Z,46.10
2022-08-12T11:55:27.551Z,47.00
2022-08-12T11:58:19.862Z,46.20
2022-08-12T12:03:40.418Z,46.70
2022-08-12T12:06:17.032Z,42.00
2022-08-12T12:08:51.104Z,42.10
2022-08-12T12:11:22.092Z,43.40
2022-08-12T12:14:08.125Z,42.70
2022-08-12T12:16:48.127Z,42.60
2022-08-12T12:19:19.407Z,42.80
2022-08-12T12:21:49.523Z,42.10
2022-08-12T12:24:21.317Z,43.60
2022-08-12T12:27:00.311Z,43.20
2022-08-12T12:30:17.771Z,43.60
2022-08-12T12:32:29.574Z,43.00
2022-08-12T12:35:13.070Z,44.30
2022-08-12T12:38:03.966Z,45.20
2022-08-12T12:40:39.746Z,45.90
2022-08-12T12:43:09.225Z,43.80
2022-08-12T12:45:39.512Z,44.80
2022-08-12T12:48:17.288Z,45.00
2022-08-12T12:51:09.352Z,42.90
2022-08-12T12:54:06.411Z,44.50
2022-08-12T12:56:33.894Z,44.40
2022-08-12T12:59:06.060Z,43.20
2022-08-12T13:01:41.809Z,43.30
2022-08-12T13:04:14.444Z,42.90
2022-08-12T13:06:43.051Z,42.90
2022-08-12T13:09:13.521Z,42.20
2022-08-12T13:11:44.571Z,42.60
2022-08-12T13:14:29.483Z,42.10
2022-08-12T13:17:02.349Z,42.90
2022-08-12T13:19:43.438Z,44.30
2022-08-12T13:22:19.967Z,43.70
2022-08-12T13:24:54.785Z,44.90
2022-08-12T13:27:35.737Z,42.10
2022-08-12T13:30:11.375Z,43.90
2022-08-12T13:32:42.534Z,45.40
2022-08-12T13:35:19.730Z,46.00
2022-08-12T13:38:02.500Z,43.60
2022-08-12T13:40:33.833Z,47.60
2022-08-12T13:43:06.300Z,45.10
2022-08-12T13:45:36.663Z,45.20
2022-08-12T13:48:07.220Z,45.00
2022-08-12T13:50:40.433Z,46.00
2022-08-12T13:53:23.960Z,45.60
2022-08-12T13:55:59.647Z,45.40
2022-08-12T13:58:34.760Z,46.70
2022-08-12T14:01:06.319Z,46.40
2022-08-12T14:03:50.476Z,47.30
2022-08-12T14:06:26.062Z,48.70
2022-08-12T14:08:59.722Z,49.30
2022-08-12T14:11:32.215Z,50.50
2022-08-12T14:14:04.260Z,50.00
2022-08-12T14:16:48.758Z,47.80
2022-08-12T14:19:24.165Z,48.90
2022-08-12T14:22:01.091Z,50.70
2022-08-12T14:24:41.171Z,51.10
2022-08-12T14:27:11.323Z,51.30
2022-08-12T14:32:35.293Z,52.30
2022-08-12T14:35:06.532Z,50.00
2022-08-12T14:37:56.782Z,49.70
2022-08-12T14:40:29.131Z,50.50
2022-08-12T14:42:59.285Z,51.10
2022-08-12T14:45:45.030Z,51.40
2022-08-12T14:48:19.674Z,53.10
2022-08-12T14:51:02.776Z,57.80
2022-08-12T14:54:49.855Z,59.40
2022-08-12T14:59:56.281Z,59.70
2022-08-12T15:02:26.531Z,59.20
2022-08-12T15:04:59.120Z,60.30
2022-08-12T15:07:33.764Z,62.00
2022-08-12T15:10:25.366Z,62.90
2022-08-12T15:13:07.504Z,63.20
2022-08-12T15:15:45.651Z,61.90
2022-08-12T15:18:21.373Z,63.10
2022-08-12T15:20:52.284Z,62.10
2022-08-12T15:23:24.202Z,62.80
2022-08-12T15:26:03.592Z,62.30
2022-08-12T15:28:36.980Z,62.50
2022-08-12T15:31:21.407Z,61.90
2022-08-12T15:33:57.440Z,59.80
2022-08-12T15:36:54.404Z,60.80
2022-08-12T15:39:16.703Z,57.00
2022-08-12T15:41:50.062Z,56.20
2022-08-12T15:44:38.109Z,54.60
2022-08-12T15:47:09.623Z,55.80
2022-08-12T15:49:54.214Z,57.50
2022-08-12T15:52:30.675Z,52.80
2022-08-12T15:55:06.317Z,52.90
2022-08-12T15:57:53.830Z,54.00
2022-08-12T16:00:33.164Z,55.40
2022-08-12T16:03:05.315Z,55.90
2022-08-12T16:06:11.487Z,54.10
2022-08-12T16:08:27.376Z,53.10
2022-08-12T16:10:56.881Z,53.10
2022-08-12T16:13:34.838Z,54.30
2022-08-12T16:16:22.922Z,53.40
2022-08-12T16:18:58.603Z,52.50
2022-08-12T16:21:50.674Z,51.00
2022-08-12T16:24:18.666Z,52.30
2022-08-12T16:26:51.444Z,53.10
2022-08-12T16:29:52.548Z,52.10
2022-08-12T16:32:24.142Z,52.50
2022-08-12T16:34:55.549Z,53.90
2022-08-12T16:37:32.383Z,53.50
2022-08-12T16:42:39.127Z,54.10
2022-08-12T16:45:14.137Z,55.70
2022-08-12T16:47:58.169Z,56.10
2022-08-12T16:50:31.092Z,56.80
2022-08-12T16:53:03.307Z,56.30
2022-08-12T16:55:41.749Z,54.50
2022-08-12T16:58:28.566Z,55.80
2022-08-12T17:01:02.317Z,54.60
2022-08-12T17:03:35.244Z,55.40
2022-08-12T17:06:06.438Z,55.90
2022-08-12T17:08:35.572Z,55.30
2022-08-12T17:11:08.527Z,56.00
2022-08-12T17:13:53.073Z,56.40
2022-08-12T17:16:24.768Z,55.70
2022-08-12T17:19:03.257Z,55.30
2022-08-12T17:21:40.170Z,55.70
2022-08-12T17:24:15.272Z,55.90
2022-08-12T17:26:49.266Z,56.50
2022-08-12T17:29:24.163Z,57.10
2022-08-12T17:32:14.489Z,56.10
2022-08-12T17:35:02.256Z,56.10
2022-08-12T17:37:34.027Z,56.30
2022-08-12T17:40:15.986Z,57.90
2022-08-12T17:42:48.229Z,58.00
2022-08-12T17:45:19.581Z,58.40
2022-08-12T17:48:04.773Z,59.30
2022-08-12T17:50:39.775Z,59.00
2022-08-12T17:53:10.885Z,59.20
2022-08-12T17:55:48.094Z,59.60
2022-08-12T17:58:36.974Z,58.80
2022-08-12T18:01:11.032Z,59.30
2022-08-12T18:04:04.912Z,59.80
2022-08-12T18:06:36.099Z,59.90
2022-08-12T18:09:09.683Z,60.40
2022-08-12T18:12:05.036Z,62.30
2022-08-12T18:14:38.277Z,63.40
2022-08-12T18:17:12.165Z,62.80
2022-08-12T18:20:07.040Z,64.00
2022-08-12T18:22:34.250Z,64.60
2022-08-12T18:25:13.727Z,64.90
2022-08-12T18:28:16.680Z,65.40
2022-08-12T18:30:53.249Z,66.40
2022-08-12T18:33:25.658Z,66.10
2022-08-12T18:35:57.025Z,66.10
2022-08-12T18:38:27.863Z,67.00
2022-08-12T18:41:22.472Z,67.10
2022-08-12T18:44:00.710Z,67.70
2022-08-12T18:46:47.201Z,67.10
2022-08-12T18:49:21.649Z,68.00
2022-08-12T18:52:03.993Z,69.30
2022-08-12T18:54:36.378Z,68.70
2022-08-12T18:57:19.928Z,69.10
2022-08-12T19:00:06.802Z,68.60
2022-08-12T19:02:39.786Z,68.70
2022-08-12T19:05:11.914Z,69.20
2022-08-12T19:07:59.988Z,68.80
2022-08-12T19:10:31.940Z,70.50
2022-08-12T19:13:23.923Z,69.30
2022-08-12T19:15:57.736Z,69.90
2022-08-12T19:18:29.764Z,70.10
2022-08-12T19:21:06.447Z,70.80
2022-08-12T19:23:41.981Z,71.70
2022-08-12T19:26:12.746Z,72.50
2022-08-12T19:28:43.035Z,72.40
2022-08-12T19:31:58.421Z,72.00
2022-08-12T19:37:27.032Z,71.40
2022-08-12T19:40:09.104Z,72.20
2022-08-12T19:43:00.954Z,71.60
2022-08-12T19:45:43.472Z,72.10
2022-08-12T19:48:19.960Z,72.90
2022-08-12T19:50:52.520Z,74.10
2022-08-12T19:53:23.887Z,74.30
2022-08-12T19:55:57.391Z,75.50
2022-08-12T19:58:26.978Z,75.50
2022-08-12T20:00:56.077Z,74.80
2022-08-12T20:03:40.591Z,74.70
2022-08-12T20:06:15.553Z,75.70
2022-08-12T20:08:48.761Z,76.20
2022-08-12T20:12:11.678Z,75.80
2022-08-12T20:14:18.936Z,75.90
2022-08-12T20:16:53.014Z,77.10
2022-08-12T20:19:52.770Z,78.40
2022-08-12T20:22:24.270Z,79.40
2022-08-12T20:25:01.390Z,80.50
2022-08-12T20:28:04.006Z,80.90
2022-08-12T20:30:52.710Z,81.80
2022-08-12T20:33:18.447Z,82.50
2022-08-12T20:36:06.442Z,85.10
2022-08-12T20:38:40.383Z,85.80
2022-08-12T20:41:17.636Z,87.20
2022-08-12T20:43:51.793Z,88.20
2022-08-12T20:46:21.354Z,89.20
2022-08-12T20:48:55.247Z,90.10
2022-08-12T20:51:28.152Z,91.20
2022-08-12T20:54:16.709Z,91.20
2022-08-12T20:56:47.165Z,92.10
2022-08-12T20:59:20.078Z,92.20
2022-08-12T21:01:54.220Z,93.00
2022-08-12T21:04:43.688Z,93.10
2022-08-12T21:07:14.331Z,93.50
2022-08-12T21:09:49.078Z,93.60
2022-08-12T21:12:28.482Z,93.50
2022-08-12T21:15:23.079Z,93.70
2022-08-12T21:18:11.872Z,95.00
2022-08-12T21:20:54.721Z,95.30
2022-08-12T21:23:23.863Z,95.50
2022-08-12T21:28:27.447Z,96.60
2022-08-12T21:32:34.484Z,96.50
2022-08-12T21:34:07.331Z,96.10
2022-08-12T21:36:48.151Z,97.10
2022-08-12T21:39:21.137Z,96.70
2022-08-12T21:41:52.943Z,97.30
2022-08-12T21:45:43.453Z,97.40
2022-08-12T21:47:20.871Z,97.90
2022-08-12T21:50:06.124Z,97.90
2022-08-12T21:52:40.419Z,98.20
2022-08-12T21:55:17.693Z,98.50
2022-08-12T21:57:53.502Z,99.40
2022-08-12T22:00:32.989Z,98.70
2022-08-12T22:04:02.280Z,99.60
2022-08-12T22:06:30.383Z,99.50
2022-08-12T22:09:16.850Z,99.80
2022-08-12T22:11:56.003Z,99.60
2022-08-12T22:14:28.267Z,99.90
2022-08-12T22:17:00.644Z,99.80
2022-08-12T22:19:33.805Z,99.90
2022-08-12T22:22:05.304Z,99.90
2022-08-12T22:24:34.517Z,99.90
2022-08-12T22:27:18.277Z,99.90
2022-08-12T22:30:16.528Z,99.90
2022-08-12T22:32:49.699Z,99.90
2022-08-12T22:35:55.765Z,99.90
2022-08-12T22:38:23.793Z,99.90
2022-08-12T22:40:55.541Z,99.90
2022-08-12T22:43:59.247Z,99.90
2022-08-12T22:46:53.163Z,99.90
2022-08-12T22:49:36.597Z,99.90
2022-08-12T22:52:13.918Z,99.90
2022-08-12T22:54:59.950Z,99.90
2022-08-12T22:57:49.031Z,99.90
2022-08-12T23:00:27.176Z,99.90
2022-08-12T23:03:00.510Z,99.90
2022-08-12T23:05:57.110Z,99.90
2022-08-12T23:08:29.942Z,99.90
2022-08-12T23:11:00.697Z,99.90
2022-08-12T23:13:54.899Z,99.90
2022-08-12T23:16:30.943Z,99.90
2022-08-12T23:19:11.059Z,99.90
2022-08-12T23:22:03.567Z,99.90
2022-08-12T23:24:37.152Z,99.90
2022-08-12T23:27:44.156Z,99.90
2022-08-12T23:30:18.692Z,99.90
2022-08-12T23:32:54.519Z,99.90
2022-08-12T23:35:45.866Z,99.90
2022-08-12T23:38:30.760Z,99.90
2022-08-12T23:41:05.701Z,99.90
2022-08-12T23:43:39.076Z,99.90
2022-08-12T23:46:11.073Z,99.90
2022-08-12T23:48:40.873Z,99.90
2022-08-12T23:51:21.956Z,99.90
2022-08-12T23:54:00.266Z,99.90
2022-08-12T23:56:33.105Z,99.90
